Arnold, Maryland
Current Conditions -  °F | °C
As of 11:54 PM on Friday 31 Oct 2014 (Local Time) from KNAK Reporting Station
Scattered Clouds Scattered Clouds  
Wind Chill: 50°   Ceiling: Unl
Heat Index: 50°   Visibility: 10mi
Dew Point: 41°   Wind: 9mph
Humidity: 71%   Direction: 350°N
Pressure: 29.82"   Gusts: NA
Location:  39.03°N, 76.51°W
Report Text: KNAK 010354Z AUTO 35008KT 10SM SCT060 10/05 A2982 RMK AO2 SLP099 T01000050
Loading
Personal Weather Stations






























Interactive Weather Map
Tropical Storm Tracking
New forecast layout! Learn more

10-Day Weather Forecast

Advertisements
Track Severe Weather on mobile